Time;durP1;ratioP1;P1;durP2;ratioP2;P2;SDS_P1;SDS_P2;PMS_P1;PMS_P2;Temp;Humidity;BMP_temperature;BMP_pressure;BME280_temperature;BME280_humidity;BME280_pressure;Samples;Min_cycle;Max_cycle;Signal;HPM_P1;HPM_P2
2023/07/17 00:01:17;;;;;;;15.77;9.00;;;;;;;22.18;100.00;92837.13;4787260;30;20047;-76
2023/07/17 00:03:43;;;;;;;18.35;9.73;;;;;;;22.17;100.00;92838.25;4787918;30;20043;-77
2023/07/17 00:06:09;;;;;;;24.77;9.75;;;;;;;22.13;100.00;92834.72;4799658;29;20066;-77
2023/07/17 00:08:35;;;;;;;25.63;9.68;;;;;;;22.12;100.00;92830.53;4805425;29;20490;-76
2023/07/17 00:11:00;;;;;;;23.90;9.07;;;;;;;22.11;100.00;92829.00;4805672;29;20031;-77
2023/07/17 00:13:26;;;;;;;27.17;9.60;;;;;;;22.11;100.00;92826.34;4804507;29;20375;-77
2023/07/17 00:15:51;;;;;;;19.23;9.43;;;;;;;22.09;100.00;92828.56;4805174;29;20035;-77
2023/07/17 00:18:17;;;;;;;19.05;9.45;;;;;;;22.07;100.00;92828.16;4805325;29;20043;-77
2023/07/17 00:20:42;;;;;;;19.50;9.80;;;;;;;22.07;100.00;92832.72;4805289;29;20135;-77
2023/07/17 00:23:08;;;;;;;24.23;9.93;;;;;;;22.06;100.00;92833.81;4805609;29;20031;-77
2023/07/17 00:25:34;;;;;;;21.33;9.65;;;;;;;22.07;100.00;92824.72;4805226;29;20054;-77
2023/07/17 00:27:59;;;;;;;22.55;9.88;;;;;;;22.08;100.00;92829.69;4804350;29;20064;-77
2023/07/17 00:30:25;;;;;;;22.90;9.88;;;;;;;22.09;100.00;92825.13;4804213;29;20031;-76
2023/07/17 00:32:51;;;;;;;20.52;10.00;;;;;;;22.10;100.00;92822.09;4804169;29;20035;-77
2023/07/17 00:35:17;;;;;;;19.33;10.05;;;;;;;22.11;100.00;92821.00;4791239;29;20039;-77
2023/07/17 00:37:42;;;;;;;19.65;9.57;;;;;;;22.10;100.00;92822.09;4801712;29;20058;-77
2023/07/17 00:40:09;;;;;;;17.80;9.07;;;;;;;22.10;100.00;92822.09;4804033;29;20035;-77
2023/07/17 00:42:35;;;;;;;22.50;9.93;;;;;;;22.11;100.00;92817.53;4803898;29;20410;-77
2023/07/17 00:45:00;;;;;;;22.70;9.88;;;;;;;22.10;100.00;92822.09;4805468;29;20035;-77
2023/07/17 00:47:27;;;;;;;23.05;10.25;;;;;;;22.12;100.00;92819.09;4803803;29;20054;-77
2023/07/17 00:49:54;;;;;;;23.40;9.95;;;;;;;22.11;100.00;92821.00;4804053;29;20098;-77
2023/07/17 00:52:20;;;;;;;20.42;9.65;;;;;;;22.09;100.00;92819.78;4803979;29;20050;-77
2023/07/17 00:54:46;;;;;;;22.63;9.50;;;;;;;22.08;100.00;92823.59;4805872;29;20027;-77
2023/07/17 00:57:15;;;;;;;24.52;9.75;;;;;;;22.08;100.00;92827.03;4804714;29;20042;-77
2023/07/17 00:59:42;;;;;;;21.15;10.15;;;;;;;22.06;100.00;92823.94;4803593;29;20521;-77
2023/07/17 01:02:10;;;;;;;19.52;10.65;;;;;;;22.04;100.00;92816.28;4805290;29;20506;-76
2023/07/17 01:04:36;;;;;;;21.95;10.60;;;;;;;22.03;100.00;92816.63;4789158;29;20038;-76
2023/07/17 01:07:02;;;;;;;21.38;10.68;;;;;;;22.00;100.00;92817.34;4804964;29;20046;-77
2023/07/17 01:09:29;;;;;;;25.48;10.55;;;;;;;21.99;100.00;92821.13;4804906;29;20107;-77
2023/07/17 01:11:54;;;;;;;20.75;10.70;;;;;;;21.99;100.00;92815.78;4803744;29;20043;-77
2023/07/17 01:14:20;;;;;;;28.15;10.55;;;;;;;21.97;100.00;92818.78;4803974;29;20042;-76
2023/07/17 01:16:47;;;;;;;27.45;10.40;;;;;;;21.96;100.00;92808.50;4804646;29;20043;-77
2023/07/17 01:19:13;;;;;;;20.45;9.95;;;;;;;21.93;100.00;92801.19;4803547;29;20075;-77
2023/07/17 01:22:01;;;;;;;21.75;9.23;;;;;;;21.91;100.00;92803.41;4805635;29;20542;-77
2023/07/17 01:24:27;;;;;;;17.20;9.82;;;;;;;21.88;100.00;92804.13;4786956;29;20039;-76
2023/07/17 01:26:52;;;;;;;27.02;10.23;;;;;;;21.85;100.00;92802.94;4787049;29;20092;-76
2023/07/17 01:29:19;;;;;;;20.42;10.32;;;;;;;21.81;100.00;92794.84;4803894;29;20102;-77
2023/07/17 01:31:45;;;;;;;20.02;9.93;;;;;;;21.78;100.00;92805.47;4803768;29;20103;-77
2023/07/17 01:34:10;;;;;;;24.08;10.82;;;;;;;21.73;100.00;92797.72;4804811;29;20452;-77
2023/07/17 01:36:36;;;;;;;21.40;10.73;;;;;;;21.67;100.00;92794.56;4790487;29;20043;-77
2023/07/17 01:39:02;;;;;;;20.90;10.52;;;;;;;21.61;100.00;92790.63;4785843;30;20050;-76
2023/07/17 01:41:28;;;;;;;20.33;10.52;;;;;;;21.56;100.00;92796.97;4785765;30;20100;-77
2023/07/17 01:43:56;;;;;;;27.88;10.32;;;;;;;21.53;100.00;92799.59;4786516;29;20051;-77
2023/07/17 01:46:22;;;;;;;21.77;11.05;;;;;;;21.49;100.00;92793.41;4785298;30;20053;-76
2023/07/17 01:48:48;;;;;;;26.20;11.70;;;;;;;21.40;100.00;92791.69;4787089;29;20127;-77
2023/07/17 01:51:13;;;;;;;21.85;11.77;;;;;;;21.40;100.00;92793.56;4790101;29;20043;-77
2023/07/17 01:53:39;;;;;;;25.40;11.30;;;;;;;21.37;100.00;92797.69;4789672;29;20039;-76
2023/07/17 01:56:05;;;;;;;23.27;11.43;;;;;;;21.33;100.00;92802.16;4788214;30;20418;-77
2023/07/17 01:58:30;;;;;;;24.80;10.50;;;;;;;21.26;100.00;92799.31;4788239;30;20059;-77
2023/07/17 02:00:56;;;;;;;21.27;11.07;;;;;;;21.24;100.00;92792.81;4788206;30;20043;-77
2023/07/17 02:03:22;;;;;;;26.90;12.10;;;;;;;21.20;100.00;92796.13;4773553;30;20414;-77
2023/07/17 02:05:51;;;;;;;24.73;11.23;;;;;;;21.19;100.00;92796.50;4788464;30;20039;-77
2023/07/17 02:08:17;;;;;;;28.00;11.18;;;;;;;21.17;100.00;92804.06;4788474;30;20042;-77
2023/07/17 02:10:44;;;;;;;23.95;10.90;;;;;;;21.15;100.00;92811.63;4800970;29;20039;-77
2023/07/17 02:13:10;;;;;;;21.55;10.88;;;;;;;21.13;100.00;92813.84;4806880;29;20138;-76
2023/07/17 02:15:35;;;;;;;20.88;11.20;;;;;;;21.13;100.00;92808.53;4805996;29;20103;-77
2023/07/17 02:18:02;;;;;;;20.58;11.20;;;;;;;21.09;100.00;92803.09;4806010;29;20073;-77
2023/07/17 02:20:27;;;;;;;24.65;12.00;;;;;;;21.07;100.00;92809.88;4807523;29;20053;-76
2023/07/17 02:22:54;;;;;;;26.52;11.77;;;;;;;21.05;100.00;92806.78;4806164;29;20095;-77
2023/07/17 02:25:20;;;;;;;29.25;11.18;;;;;;;21.05;100.00;92810.22;4806111;29;20051;-77
2023/07/17 02:27:45;;;;;;;31.92;11.88;;;;;;;21.05;100.00;92802.22;4806037;29;20045;-77
2023/07/17 02:30:11;;;;;;;28.15;11.25;;;;;;;21.05;100.00;92796.16;4806084;29;20440;-77
2023/07/17 02:32:37;;;;;;;24.83;12.02;;;;;;;21.05;100.00;92785.50;4806113;29;20050;-77
2023/07/17 02:35:04;;;;;;;30.50;11.85;;;;;;;21.04;100.00;92783.97;4807482;29;20051;-77
2023/07/17 02:37:30;;;;;;;28.73;11.52;;;;;;;20.99;100.00;92793.75;4806762;29;20030;-77
2023/07/17 02:39:56;;;;;;;21.98;10.75;;;;;;;20.98;100.00;92791.41;4805944;29;20119;-77
2023/07/17 02:42:22;;;;;;;26.38;11.70;;;;;;;20.93;100.00;92789.78;4806733;29;20035;-77
2023/07/17 02:44:48;;;;;;;24.05;10.98;;;;;;;20.90;100.00;92790.50;4806864;29;20043;-77
2023/07/17 02:47:14;;;;;;;26.02;12.40;;;;;;;20.88;100.00;92798.03;4806706;29;20070;-76
2023/07/17 02:49:41;;;;;;;18.10;11.75;;;;;;;20.86;100.00;92799.50;4802175;29;20096;-77
2023/07/17 02:52:07;;;;;;;32.63;12.77;;;;;;;20.87;100.00;92806.34;4788439;29;20514;-76
2023/07/17 02:54:36;;;;;;;25.23;11.50;;;;;;;20.86;100.00;92808.25;4787738;30;20374;-77
2023/07/17 02:57:04;;;;;;;26.90;11.95;;;;;;;20.86;100.00;92804.81;4788251;29;20131;-76
2023/07/17 02:59:30;;;;;;;25.15;12.68;;;;;;;20.87;100.00;92806.34;4788149;29;20455;-77
2023/07/17 03:01:56;;;;;;;23.73;12.00;;;;;;;20.87;100.00;92806.34;4787570;30;20092;-76
2023/07/17 03:04:22;;;;;;;26.63;12.30;;;;;;;20.87;100.00;92807.13;4788706;29;20035;-76
2023/07/17 03:06:48;;;;;;;21.73;11.98;;;;;;;20.87;100.00;92798.38;4787593;30;20051;-77
2023/07/17 03:09:14;;;;;;;25.02;12.30;;;;;;;20.86;100.00;92810.91;4787629;30;20036;-77
2023/07/17 03:11:39;;;;;;;25.70;12.30;;;;;;;20.84;100.00;92813.13;4788526;29;20483;-76
2023/07/17 03:14:05;;;;;;;26.70;12.40;;;;;;;20.82;100.00;92812.69;4788802;29;20043;-77
2023/07/17 03:16:30;;;;;;;29.58;12.35;;;;;;;20.77;100.00;92804.97;4787366;30;20039;-76
2023/07/17 03:18:57;;;;;;;30.50;12.93;;;;;;;20.79;100.00;92814.16;4787437;30;20066;-77
2023/07/17 03:21:22;;;;;;;22.95;12.65;;;;;;;20.78;100.00;92806.50;4772230;30;20043;-77
2023/07/17 03:23:48;;;;;;;26.45;12.32;;;;;;;20.75;100.00;92812.53;4787169;30;20051;-77
2023/07/17 03:26:14;;;;;;;22.98;12.80;;;;;;;20.72;100.00;92807.91;4788154;29;20047;-77
2023/07/17 03:28:40;;;;;;;27.50;13.05;;;;;;;20.69;100.00;92811.22;4804511;29;20043;-77
2023/07/17 03:31:07;;;;;;;27.17;12.70;;;;;;;20.66;100.00;92804.69;4804947;29;20513;-77
2023/07/17 03:33:33;;;;;;;29.92;12.45;;;;;;;20.66;100.00;92801.28;4790020;29;20050;-77
2023/07/17 03:35:59;;;;;;;25.08;12.70;;;;;;;20.68;100.00;92804.38;4805028;29;20043;-77
2023/07/17 03:38:26;;;;;;;22.52;12.65;;;;;;;20.63;100.00;92807.28;4806316;29;20039;-77
2023/07/17 03:40:51;;;;;;;23.70;13.00;;;;;;;20.60;100.00;92808.72;4805866;29;20091;-77
2023/07/17 03:43:17;;;;;;;27.85;12.82;;;;;;;20.55;100.00;92815.03;4805786;29;20043;-77
2023/07/17 03:45:45;;;;;;;24.95;13.25;;;;;;;20.49;100.00;92804.97;4804353;29;20077;-77
2023/07/17 03:48:11;;;;;;;21.80;13.48;;;;;;;20.46;100.00;92800.34;4804486;29;20081;-77
2023/07/17 03:50:39;;;;;;;28.92;14.05;;;;;;;20.41;100.00;92801.38;4804601;29;20409;-76
2023/07/17 03:53:05;;;;;;;26.77;13.15;;;;;;;20.39;100.00;92799.03;4805006;29;20042;-77
2023/07/17 03:55:31;;;;;;;24.98;13.90;;;;;;;20.39;100.00;92808.91;4804656;29;20046;-77
2023/07/17 03:58:00;;;;;;;27.90;14.15;;;;;;;20.36;100.00;92809.59;4804330;29;20062;-77
2023/07/17 04:00:25;;;;;;;29.15;13.57;;;;;;;20.34;100.00;92817.91;4789776;29;20414;-76
2023/07/17 04:02:51;;;;;;;25.13;13.38;;;;;;;20.35;100.00;92819.47;4805835;29;20054;-77
2023/07/17 04:05:29;;;;;;;27.92;12.95;;;;;;;20.35;100.00;92822.13;4804553;29;20123;-77
2023/07/17 04:07:57;;;;;;;22.17;13.30;;;;;;;20.31;100.00;92813.25;4804500;29;20074;-76
2023/07/17 04:10:23;;;;;;;27.50;13.10;;;;;;;20.38;100.00;92823.31;4804474;29;20069;-77
2023/07/17 04:12:49;;;;;;;32.30;13.90;;;;;;;20.39;100.00;92820.31;4803178;29;20062;-77
2023/07/17 04:15:15;;;;;;;26.58;13.05;;;;;;;20.44;100.00;92829.91;4786049;30;20510;-77
2023/07/17 04:17:41;;;;;;;28.95;13.70;;;;;;;20.48;100.00;92827.38;4786181;30;20112;-77
2023/07/17 04:20:10;;;;;;;29.15;13.05;;;;;;;20.49;100.00;92835.00;4785750;30;20122;-77
2023/07/17 04:22:36;;;;;;;32.72;14.02;;;;;;;20.51;100.00;92838.13;4787185;30;20410;-79
2023/07/17 04:25:03;;;;;;;22.77;12.68;;;;;;;20.54;100.00;92844.63;4782704;29;20043;-78
2023/07/17 04:27:30;;;;;;;34.20;14.10;;;;;;;20.55;100.00;92844.28;4801158;29;20533;-77
2023/07/17 04:29:57;;;;;;;29.40;14.00;;;;;;;20.55;100.00;92833.63;4785998;29;20038;-78
2023/07/17 04:32:25;;;;;;;29.88;13.70;;;;;;;20.58;100.00;92838.31;4792127;29;20415;-78
2023/07/17 04:34:50;;;;;;;33.03;14.27;;;;;;;20.64;100.00;92835.41;4799035;29;20050;-77
2023/07/17 04:37:20;;;;;;;20.33;12.65;;;;;;;20.66;100.00;92833.19;4801475;29;20371;-77
2023/07/17 04:39:46;;;;;;;26.40;12.95;;;;;;;20.68;100.00;92830.97;4795077;29;20078;-78
2023/07/17 04:42:12;;;;;;;25.58;14.05;;;;;;;20.71;100.00;92838.25;4800541;29;20140;-77
2023/07/17 04:44:38;;;;;;;30.23;13.57;;;;;;;20.75;100.00;92836.47;4795617;29;20070;-78
2023/07/17 04:47:04;;;;;;;29.58;14.60;;;;;;;20.78;100.00;92835.78;4804475;29;20045;-79
2023/07/17 04:49:30;;;;;;;28.02;14.30;;;;;;;20.83;100.00;92837.41;4775540;29;20134;-79
2023/07/17 04:51:56;;;;;;;27.02;13.57;;;;;;;20.89;100.00;92842.13;4803384;29;20484;-77
2023/07/17 04:54:22;;;;;;;28.65;14.57;;;;;;;20.91;100.00;92841.81;4804857;29;20045;-79
2023/07/17 04:56:47;;;;;;;30.42;13.98;;;;;;;20.95;100.00;92843.44;4802062;29;20047;-78
2023/07/17 04:59:19;;;;;;;25.85;13.90;;;;;;;20.99;100.00;92844.31;4779442;30;20067;-78
2023/07/17 05:01:45;;;;;;;23.35;14.02;;;;;;;21.04;100.00;92845.19;4798850;29;20455;-78
2023/07/17 05:04:10;;;;;;;26.95;14.63;;;;;;;21.06;100.00;92846.38;4790125;29;20051;-78
2023/07/17 05:06:36;;;;;;;24.88;14.07;;;;;;;21.11;100.00;92848.00;4805232;29;20039;-78
2023/07/17 05:09:02;;;;;;;31.70;14.20;;;;;;;21.14;100.00;92844.66;4804729;29;20506;-78
2023/07/17 05:11:28;;;;;;;29.23;15.35;;;;;;;21.17;100.00;92851.97;4813261;29;20074;-78
2023/07/17 05:13:53;;;;;;;30.13;14.52;;;;;;;21.19;100.00;92852.41;4802815;29;20037;-78
2023/07/17 05:16:20;;;;;;;35.75;15.45;;;;;;;21.23;100.00;92855.13;4787642;29;20042;-78
2023/07/17 05:18:46;;;;;;;30.77;14.52;;;;;;;21.26;100.00;92857.91;4784937;29;20049;-78
2023/07/17 05:21:11;;;;;;;34.13;15.55;;;;;;;21.30;100.00;92860.63;4805309;29;20039;-79
2023/07/17 05:23:37;;;;;;;30.80;15.48;;;;;;;21.32;100.00;92855.72;4806688;29;20042;-78
2023/07/17 05:26:06;;;;;;;35.70;14.85;;;;;;;21.35;100.00;92857.72;4801441;29;20051;-79
2023/07/17 05:28:33;;;;;;;26.63;14.55;;;;;;;21.40;100.00;92858.25;4801872;29;20049;-78
2023/07/17 05:30:58;;;;;;;35.47;14.93;;;;;;;21.49;100.00;92862.66;4809449;29;20035;-78
2023/07/17 05:33:25;;;;;;;31.48;14.30;;;;;;;21.57;100.00;92864.34;4805733;29;20047;-79
2023/07/17 05:35:51;;;;;;;29.60;14.57;;;;;;;21.67;100.00;92861.16;4792159;29;20043;-79
2023/07/17 05:38:19;;;;;;;33.78;14.32;;;;;;;21.79;100.00;92865.59;4778970;29;20501;-79
2023/07/17 05:40:46;;;;;;;35.45;15.63;;;;;;;21.91;100.00;92872.72;4823960;29;20049;-78
2023/07/17 05:43:11;;;;;;;28.33;15.02;;;;;;;22.02;100.00;92868.38;4793703;29;20043;-79
2023/07/17 05:45:43;;;;;;;;;;;;;;;22.16;100.00;92874.03;4807905;29;20446;-79
2023/07/17 05:48:09;;;;;;;27.05;14.38;;;;;;;22.31;100.00;92874.34;4794146;29;20299;-79
2023/07/17 05:50:35;;;;;;;33.92;14.73;;;;;;;22.45;100.00;92874.66;4803910;29;20016;-79
2023/07/17 05:53:00;;;;;;;30.92;14.38;;;;;;;22.61;100.00;92869.25;4792267;29;20074;-78
2023/07/17 05:55:26;;;;;;;30.10;15.13;;;;;;;22.79;100.00;92867.69;4791976;29;20137;-79
2023/07/17 05:57:52;;;;;;;28.50;14.50;;;;;;;23.21;100.00;92868.81;4795816;29;20074;-79
2023/07/17 06:00:19;;;;;;;35.15;15.05;;;;;;;23.76;100.00;92871.28;4813866;29;20536;-79
2023/07/17 06:02:44;;;;;;;34.38;14.63;;;;;;;24.22;100.00;92873.81;4804232;29;20100;-79
2023/07/17 06:05:11;;;;;;;29.95;13.63;;;;;;;24.70;100.00;92882.88;4799055;29;20030;-79
2023/07/17 06:07:37;;;;;;;29.73;14.25;;;;;;;25.12;100.00;92881.78;4809285;29;20035;-79
2023/07/17 06:10:03;;;;;;;27.92;14.35;;;;;;;25.48;100.00;92881.38;4803499;29;20050;-80
2023/07/17 06:12:29;;;;;;;35.85;14.32;;;;;;;25.92;100.00;92885.97;4808394;29;20096;-79
2023/07/17 06:14:55;;;;;;;29.05;13.43;;;;;;;26.14;100.00;92884.97;4802998;29;20051;-79
2023/07/17 06:17:22;;;;;;;31.15;14.30;;;;;;;26.28;100.00;92878.91;4805978;29;20042;-80
2023/07/17 06:19:48;;;;;;;28.73;13.50;;;;;;;26.32;100.00;92877.00;4802692;29;20050;-81
2023/07/17 06:22:13;;;;;;;31.02;14.55;;;;;;;26.43;100.00;92884.31;4806043;29;20131;-82
2023/07/17 06:24:39;;;;;;;32.58;15.15;;;;;;;26.41;100.00;92878.56;4798652;29;20039;-80
2023/07/17 06:27:04;;;;;;;41.33;15.05;;;;;;;26.81;100.00;92882.22;4806136;29;20054;-79
2023/07/17 06:29:30;;;;;;;34.35;15.35;;;;;;;26.97;100.00;92885.34;4811789;29;20065;-80
2023/07/17 06:31:55;;;;;;;32.10;15.40;;;;;;;26.91;100.00;92887.63;4808527;29;20409;-80
2023/07/17 06:34:21;;;;;;;35.85;16.88;;;;;;;26.84;100.00;92884.94;4806464;29;20509;-79
2023/07/17 06:36:49;;;;;;;29.77;15.77;;;;;;;26.90;100.00;92890.69;4801778;29;20070;-77
2023/07/17 06:39:15;;;;;;;32.88;15.50;;;;;;;26.75;100.00;92885.28;4801384;29;20050;-80
2023/07/17 06:41:41;;;;;;;27.63;15.48;;;;;;;26.29;100.00;92891.16;4804707;29;20035;-79
2023/07/17 06:44:07;;;;;;;30.35;15.95;;;;;;;26.01;100.00;92901.69;4805336;29;20557;-79
2023/07/17 06:46:32;;;;;;;28.35;16.02;;;;;;;25.65;100.00;92896.06;4807709;29;20045;-79
2023/07/17 06:48:58;;;;;;;30.23;15.90;;;;;;;25.29;100.00;92898.44;4800590;29;20493;-79
2023/07/17 06:51:24;;;;;;;32.55;17.50;;;;;;;25.03;100.00;92904.63;4804679;29;20034;-79
2023/07/17 06:53:51;;;;;;;28.65;16.42;;;;;;;25.01;100.00;92896.19;4802912;29;20107;-82
2023/07/17 06:56:17;;;;;;;42.13;18.17;;;;;;;24.95;100.00;92903.81;4801544;29;20088;-80
2023/07/17 06:58:43;;;;;;;32.53;17.60;;;;;;;25.11;100.00;92900.91;4801665;29;20086;-80
2023/07/17 07:01:08;;;;;;;32.35;17.35;;;;;;;25.14;100.00;92900.16;4802599;29;20043;-77
2023/07/17 07:03:34;;;;;;;38.35;18.13;;;;;;;24.93;100.00;92903.38;4807968;29;20462;-78
2023/07/17 07:06:00;;;;;;;32.67;17.20;;;;;;;24.89;100.00;92905.25;4790150;29;20051;-78
2023/07/17 07:08:31;;;;;;;40.80;17.63;;;;;;;25.39;100.00;92908.47;4790750;29;20043;-78
2023/07/17 07:10:59;;;;;;;29.17;16.30;;;;;;;25.60;100.00;92907.91;4807934;29;20046;-77
2023/07/17 07:13:26;;;;;;;28.67;16.25;;;;;;;25.74;100.00;92902.66;4808092;29;20039;-78
2023/07/17 07:15:51;;;;;;;27.00;15.70;;;;;;;25.85;100.00;92910.00;4805666;29;20130;-78
2023/07/17 07:18:18;;;;;;;31.25;16.67;;;;;;;25.88;100.00;92906.63;4800961;29;20130;-78
2023/07/17 07:20:45;;;;;;;37.70;16.52;;;;;;;25.85;100.00;92910.78;4808093;29;20035;-78
2023/07/17 07:23:10;;;;;;;33.20;16.70;;;;;;;25.91;100.00;92908.53;4807839;29;20042;-77
2023/07/17 07:25:37;;;;;;;29.83;17.60;;;;;;;25.81;100.00;92912.66;4806886;29;20067;-78
2023/07/17 07:28:04;;;;;;;35.42;17.65;;;;;;;25.68;100.00;92903.38;4821905;29;20051;-78
2023/07/17 07:30:30;;;;;;;30.88;16.48;;;;;;;25.84;100.00;92906.53;4807487;29;20505;-78
2023/07/17 07:32:56;;;;;;;33.78;15.27;;;;;;;25.94;100.00;92905.13;4807214;29;20046;-77
2023/07/17 07:35:22;;;;;;;33.83;16.08;;;;;;;26.31;100.00;92910.34;4794641;29;20624;-78
2023/07/17 07:37:47;;;;;;;40.97;16.30;;;;;;;26.24;100.00;92915.66;4788161;30;20114;-78
2023/07/17 07:40:14;;;;;;;39.25;17.45;;;;;;;26.18;100.00;92912.56;4776838;29;20512;-77
2023/07/17 07:42:41;;;;;;;39.95;17.30;;;;;;;26.09;100.00;92914.03;4806367;29;20130;-77
2023/07/17 07:45:07;;;;;;;34.45;17.15;;;;;;;26.00;100.00;92916.28;4802780;29;20035;-78
2023/07/17 07:47:33;;;;;;;33.97;16.48;;;;;;;26.09;100.00;92914.03;4787088;29;20447;-78
2023/07/17 07:49:59;;;;;;;31.42;16.85;;;;;;;25.89;100.00;92922.31;4772819;30;20054;-77
2023/07/17 07:52:25;;;;;;;31.25;16.95;;;;;;;26.08;100.00;92917.88;4794027;29;20142;-77
2023/07/17 07:54:51;;;;;;;33.63;17.50;;;;;;;26.10;100.00;92923.63;4806856;29;20501;-77
2023/07/17 07:57:16;;;;;;;39.15;17.45;;;;;;;26.11;100.00;92928.59;4806861;29;20076;-78
2023/07/17 07:59:42;;;;;;;37.75;17.08;;;;;;;26.04;100.00;92928.56;4807151;29;20058;-78
2023/07/17 08:02:09;;;;;;;30.02;16.40;;;;;;;26.22;100.00;92923.31;4821479;29;20074;-78
2023/07/17 08:04:35;;;;;;;34.75;15.55;;;;;;;26.49;100.00;92918.50;4807144;29;20043;-78
2023/07/17 08:07:00;;;;;;;29.13;15.60;;;;;;;26.37;100.00;92924.94;4807327;29;20054;-77
2023/07/17 08:09:27;;;;;;;36.88;17.05;;;;;;;26.26;100.00;92929.47;4807354;29;20054;-78
2023/07/17 08:11:52;;;;;;;33.90;16.58;;;;;;;26.27;100.00;92931.00;4791804;29;20193;-78
2023/07/17 08:14:22;;;;;;;28.77;16.40;;;;;;;26.37;100.00;92924.94;4787965;30;20096;-78
2023/07/17 08:16:50;;;;;;;28.83;16.42;;;;;;;26.20;100.00;92930.22;4803356;29;20038;-77
2023/07/17 08:19:17;;;;;;;26.27;13.93;;;;;;;26.46;100.00;92926.53;4788075;29;20039;-78
2023/07/17 08:21:43;;;;;;;33.20;15.45;;;;;;;26.69;100.00;92923.59;4802060;29;20130;-77
2023/07/17 08:24:09;;;;;;;31.13;15.20;;;;;;;26.74;100.00;92929.38;4807092;29;20057;-78
2023/07/17 08:26:38;;;;;;;34.65;16.00;;;;;;;26.69;100.00;92924.38;4805438;29;20042;-78
2023/07/17 08:29:08;;;;;;;32.95;15.65;;;;;;;26.69;100.00;92929.75;4805846;29;20045;-76
2023/07/17 08:31:34;;;;;;;27.48;15.55;;;;;;;26.79;100.00;92933.63;4788844;29;20093;-77
2023/07/17 08:34:01;;;;;;;31.23;16.35;;;;;;;26.66;100.00;92930.50;4788487;29;20039;-77
2023/07/17 08:36:31;;;;;;;32.58;17.33;;;;;;;26.95;100.00;92935.97;4805645;29;20125;-77
2023/07/17 08:38:57;;;;;;;36.67;15.63;;;;;;;27.02;100.00;92936.03;4806515;29;20133;-77
2023/07/17 08:41:23;;;;;;;30.90;16.40;;;;;;;26.98;100.00;92938.69;4804960;29;20049;-78
2023/07/17 08:43:49;;;;;;;32.42;15.60;;;;;;;26.84;100.00;92941.34;4800193;29;20035;-78
2023/07/17 08:46:15;;;;;;;26.30;16.00;;;;;;;27.06;100.00;92936.78;4797419;29;20047;-77
2023/07/17 08:48:43;;;;;;;33.80;16.55;;;;;;;26.94;100.00;92942.50;4801461;29;20031;-78
2023/07/17 08:51:12;;;;;;;30.98;15.38;;;;;;;27.02;100.00;92941.41;4758179;30;20055;-77
2023/07/17 08:53:44;;;;;;;27.73;16.15;;;;;;;27.07;100.00;92937.56;4788333;30;20101;-77
2023/07/17 08:56:11;;;;;;;28.60;15.35;;;;;;;26.95;100.00;92931.41;4794165;29;20090;-78
2023/07/17 08:58:40;;;;;;;32.03;17.95;;;;;;;26.45;100.00;92941.09;4787412;29;20070;-77
2023/07/17 09:01:09;;;;;;;42.40;19.20;;;;;;;26.35;100.00;92951.38;4788285;29;20071;-77
2023/07/17 09:03:36;;;;;;;34.08;17.75;;;;;;;26.43;100.00;92943.38;4806351;29;20081;-78
2023/07/17 09:06:04;;;;;;;37.65;18.95;;;;;;;26.42;100.00;92953.34;4791922;29;20072;-77
2023/07/17 09:08:29;;;;;;;33.25;17.20;;;;;;;26.51;100.00;92944.97;4788355;29;20063;-78
2023/07/17 09:11:06;;;;;;;37.67;17.48;;;;;;;26.45;100.00;92941.09;4777342;29;20533;-78
2023/07/17 09:13:39;;;;;;;39.42;18.95;;;;;;;26.44;100.00;92944.94;4805241;29;20517;-77
2023/07/17 09:16:23;;;;;;;32.50;16.85;;;;;;;26.63;100.00;92935.84;4804662;29;20042;-77
2023/07/17 09:18:51;;;;;;;30.90;16.55;;;;;;;26.75;100.00;92940.88;4787976;29;20031;-78
2023/07/17 09:21:21;;;;;;;35.63;15.73;;;;;;;26.84;100.00;92935.16;4786903;30;20386;-77
2023/07/17 09:23:49;;;;;;;27.98;16.88;;;;;;;26.66;100.00;92940.47;4799804;29;20580;-78
2023/07/17 09:26:17;;;;;;;28.92;15.52;;;;;;;26.75;100.00;92943.56;4819645;29;20039;-77
2023/07/17 09:28:53;;;;;;;36.28;15.25;;;;;;;26.65;100.00;92946.97;4804836;29;20051;-77
2023/07/17 09:31:24;;;;;;;32.22;14.30;;;;;;;26.87;100.00;92942.50;4805400;29;20123;-78
2023/07/17 09:33:51;;;;;;;34.45;14.63;;;;;;;26.84;100.00;92948.59;4799422;29;20069;-78
2023/07/17 09:36:16;;;;;;;26.92;16.33;;;;;;;26.70;100.00;92947.38;4804867;29;20038;-78
2023/07/17 09:38:42;;;;;;;35.30;16.25;;;;;;;26.89;100.00;92949.00;4805071;29;20401;-78
2023/07/17 09:41:37;;;;;;;38.28;17.90;;;;;;;26.86;100.00;92943.63;4806101;29;20130;-77
2023/07/17 09:44:05;;;;;;;35.92;16.17;;;;;;;26.92;100.00;92952.88;4794474;29;20108;-78
2023/07/17 09:46:32;;;;;;;29.27;15.35;;;;;;;27.13;100.00;92952.16;4805380;29;20030;-78
2023/07/17 09:48:58;;;;;;;32.58;15.05;;;;;;;27.25;100.00;92943.78;4805789;29;20739;-78
2023/07/17 09:51:25;;;;;;;33.30;14.38;;;;;;;27.42;100.00;92953.03;4787651;30;20389;-78
2023/07/17 09:53:51;;;;;;;29.85;14.38;;;;;;;27.33;100.00;92949.94;4803009;29;20126;-77
2023/07/17 09:56:19;;;;;;;30.92;13.95;;;;;;;27.60;100.00;92953.84;4804768;29;20561;-77
2023/07/17 09:58:50;;;;;;;25.85;13.65;;;;;;;27.59;100.00;92956.94;4804825;29;20130;-78
2023/07/17 10:01:18;;;;;;;24.73;12.85;;;;;;;27.73;100.00;92956.94;4788907;29;20103;-77
2023/07/17 10:03:46;;;;;;;22.35;12.75;;;;;;;27.59;100.00;92960.38;4791797;29;20062;-77
2023/07/17 10:06:13;;;;;;;29.48;14.35;;;;;;;27.63;100.00;92957.72;4787228;29;20031;-78
2023/07/17 10:08:42;;;;;;;27.88;13.07;;;;;;;27.70;100.00;92959.63;4800253;29;20117;-78
2023/07/17 10:11:07;;;;;;;26.08;13.63;;;;;;;27.71;100.00;92953.09;4809548;29;20054;-77
2023/07/17 10:13:33;;;;;;;32.25;13.85;;;;;;;27.81;100.00;92952.34;4789790;30;20074;-78
2023/07/17 10:16:00;;;;;;;26.27;13.45;;;;;;;27.64;100.00;92958.47;4789421;29;20074;-78
2023/07/17 10:18:25;;;;;;;31.15;13.60;;;;;;;27.77;100.00;92956.94;4791157;29;20031;-77
2023/07/17 10:20:53;;;;;;;22.58;12.73;;;;;;;27.69;100.00;92958.84;4805155;29;20402;-78
2023/07/17 10:23:26;;;;;;;26.83;13.07;;;;;;;27.77;100.00;92954.25;4805121;29;20051;-78
2023/07/17 10:26:05;;;;;;;27.48;13.68;;;;;;;27.69;100.00;92947.31;4791338;29;20410;-77
2023/07/17 10:28:32;;;;;;;27.45;13.15;;;;;;;27.65;100.00;92951.94;4789810;29;20585;-77
2023/07/17 10:31:07;;;;;;;30.48;14.00;;;;;;;27.76;100.00;92947.31;4804906;29;20035;-78
2023/07/17 10:33:37;;;;;;;33.38;13.80;;;;;;;27.70;100.00;92956.94;4798693;29;20139;-78
2023/07/17 10:36:03;;;;;;;29.40;14.65;;;;;;;27.50;100.00;92956.53;4804674;29;20051;-78
2023/07/17 10:38:33;;;;;;;24.92;13.57;;;;;;;27.80;100.00;92956.94;4790185;30;20433;-78
2023/07/17 10:41:24;;;;;;;32.10;14.07;;;;;;;27.85;100.00;92947.75;4791776;29;21442;-78
2023/07/17 10:43:54;;;;;;;26.75;13.52;;;;;;;27.94;100.00;92944.69;4807740;29;20481;-78
2023/07/17 10:46:25;;;;;;;30.38;13.95;;;;;;;27.99;100.00;92950.47;4807526;29;20135;-78
2023/07/17 10:48:50;;;;;;;28.83;13.43;;;;;;;27.93;100.00;92948.53;4807644;29;20046;-78
2023/07/17 10:51:16;;;;;;;28.42;13.93;;;;;;;27.94;100.00;92950.81;4808363;29;20288;-78
2023/07/17 10:53:41;;;;;;;29.30;13.63;;;;;;;28.11;100.00;92948.53;4807664;29;20042;-78
2023/07/17 10:56:07;;;;;;;26.33;12.57;;;;;;;28.07;95.07;92958.53;4792339;29;20069;-78
2023/07/17 10:58:33;;;;;;;35.45;14.18;;;;;;;28.29;100.00;92945.81;4803739;29;20475;-78
2023/07/17 11:01:04;;;;;;;28.55;13.98;;;;;;;28.62;100.00;92952.72;4789238;30;20084;-77
2023/07/17 11:03:30;;;;;;;;;;;;;;;28.85;100.00;92953.03;4791108;29;20054;-78
2023/07/17 11:05:56;;;;;;;21.05;13.02;;;;;;;29.03;100.00;92952.19;4790916;29;19925;-77
2023/07/17 11:08:25;;;;;;;27.75;13.13;;;;;;;28.67;98.35;92946.94;4790732;29;20067;-78
2023/07/17 11:10:51;;;;;;;27.65;13.27;;;;;;;28.35;95.84;92946.94;4789278;30;20069;-78